createdAt,value
2017-10-10T00:01:47.388Z,7.43
2017-10-10T00:04:24.680Z,7.57
2017-10-10T00:07:02.043Z,6.70
2017-10-10T00:09:37.429Z,6.70
2017-10-10T00:12:13.517Z,6.97
2017-10-10T00:17:32.701Z,8.17
2017-10-10T00:20:09.311Z,6.50
2017-10-10T00:22:46.149Z,7.57
2017-10-10T00:25:30.478Z,7.07
2017-10-10T00:28:09.121Z,7.20
2017-10-10T00:30:52.376Z,6.67
2017-10-10T00:33:37.048Z,7.20
2017-10-10T00:36:22.059Z,6.83
2017-10-10T00:39:05.345Z,6.00
2017-10-10T00:41:47.741Z,5.60
2017-10-10T00:44:30.772Z,7.10
2017-10-10T00:47:14.608Z,6.37
2017-10-10T00:49:54.924Z,6.50
2017-10-10T00:52:30.444Z,7.30
2017-10-10T00:54:59.549Z,6.30
2017-10-10T00:57:27.890Z,6.00
2017-10-10T00:59:56.236Z,7.23
2017-10-10T01:02:26.968Z,6.10
2017-10-10T01:04:57.093Z,6.57
2017-10-10T01:07:25.813Z,6.10
2017-10-10T01:09:54.458Z,5.50
2017-10-10T01:12:23.116Z,5.53
2017-10-10T01:14:51.738Z,6.37
2017-10-10T01:17:20.462Z,6.73
2017-10-10T01:19:49.192Z,5.23
2017-10-10T01:22:17.832Z,5.93
2017-10-10T01:24:46.137Z,5.60
2017-10-10T01:27:14.816Z,5.53
2017-10-10T01:29:43.125Z,5.30
2017-10-10T01:32:11.818Z,4.80
2017-10-10T01:34:40.579Z,5.20
2017-10-10T01:37:09.267Z,5.17
2017-10-10T01:39:37.645Z,5.90
2017-10-10T01:42:05.958Z,5.40
2017-10-10T01:44:34.293Z,5.17
2017-10-10T01:47:02.893Z,5.27
2017-10-10T01:49:31.650Z,5.10
2017-10-10T01:52:00.271Z,5.40
2017-10-10T01:54:28.905Z,5.50
2017-10-10T01:56:57.582Z,5.93
2017-10-10T01:59:26.233Z,5.10
2017-10-10T02:01:54.861Z,6.10
2017-10-10T02:04:23.528Z,5.80
2017-10-10T02:06:52.211Z,4.93
2017-10-10T02:09:20.867Z,5.57
2017-10-10T02:11:49.497Z,5.50
2017-10-10T02:14:18.193Z,5.00
2017-10-10T02:16:46.837Z,4.97
2017-10-10T02:19:15.331Z,5.60
2017-10-10T02:21:43.935Z,5.07
2017-10-10T02:24:12.699Z,5.30
2017-10-10T02:26:41.319Z,5.83
2017-10-10T02:29:09.974Z,5.27
2017-10-10T02:31:38.655Z,5.20
2017-10-10T02:34:07.335Z,4.70
2017-10-10T02:36:36.004Z,5.47
2017-10-10T02:39:03.942Z,5.47
2017-10-10T02:41:32.458Z,5.10
2017-10-10T02:44:01.061Z,5.20
2017-10-10T02:46:29.662Z,4.50
2017-10-10T02:48:58.363Z,5.57
2017-10-10T02:51:27.077Z,5.40
2017-10-10T02:53:55.736Z,4.53
2017-10-10T02:56:24.373Z,4.47
2017-10-10T02:58:53.022Z,4.13
2017-10-10T03:01:21.731Z,3.93
2017-10-10T03:03:50.347Z,3.83
2017-10-10T03:06:18.955Z,4.00
2017-10-10T03:08:47.621Z,3.53
2017-10-10T03:11:16.269Z,4.00
2017-10-10T03:13:48.655Z,4.73
2017-10-10T03:16:17.270Z,3.50
2017-10-10T03:18:45.898Z,3.07
2017-10-10T03:21:14.545Z,4.10
2017-10-10T03:23:43.156Z,3.80
2017-10-10T03:26:11.774Z,3.23
2017-10-10T03:28:42.141Z,4.40
2017-10-10T03:31:10.794Z,3.90
2017-10-10T03:33:39.402Z,4.67
2017-10-10T03:36:08.046Z,4.13
2017-10-10T03:38:36.694Z,4.60
2017-10-10T03:41:05.346Z,4.40
2017-10-10T03:43:33.954Z,5.10
2017-10-10T03:46:02.617Z,6.00
2017-10-10T03:48:31.227Z,5.43
2017-10-10T03:50:59.881Z,5.13
2017-10-10T03:53:28.479Z,5.97
2017-10-10T03:55:57.163Z,6.77
2017-10-10T03:58:25.774Z,5.83
2017-10-10T04:00:55.317Z,5.83
2017-10-10T04:03:23.994Z,6.83
2017-10-10T04:05:52.460Z,6.53
2017-10-10T04:08:20.923Z,6.30
2017-10-10T04:10:49.445Z,7.13
2017-10-10T04:13:18.078Z,8.13
2017-10-10T04:15:47.035Z,7.60
2017-10-10T04:18:17.923Z,8.90
2017-10-10T04:20:48.282Z,8.97
2017-10-10T04:23:17.010Z,8.30
2017-10-10T04:25:45.691Z,8.67
2017-10-10T04:28:14.391Z,10.53
2017-10-10T04:30:43.051Z,10.97
2017-10-10T04:33:11.702Z,11.57
2017-10-10T04:35:40.370Z,12.30
2017-10-10T04:38:09.047Z,11.70
2017-10-10T04:40:37.740Z,13.43
2017-10-10T04:43:06.358Z,12.70
2017-10-10T04:45:35.030Z,13.50
2017-10-10T04:48:03.638Z,14.53
2017-10-10T04:50:32.259Z,13.73
2017-10-10T04:53:00.930Z,15.30
2017-10-10T04:55:29.406Z,15.47
2017-10-10T04:57:57.912Z,16.13
2017-10-10T05:00:26.304Z,16.03
2017-10-10T05:02:54.965Z,16.13
2017-10-10T05:05:23.581Z,16.50
2017-10-10T05:07:52.242Z,17.30
2017-10-10T05:10:26.903Z,17.30
2017-10-10T05:12:55.580Z,17.97
2017-10-10T05:15:24.213Z,17.13
2017-10-10T05:17:52.693Z,16.30
2017-10-10T05:20:21.388Z,16.77
2017-10-10T05:22:50.030Z,17.60
2017-10-10T05:25:18.659Z,19.40
2017-10-10T05:27:47.326Z,20.43
2017-10-10T05:30:15.990Z,19.40
2017-10-10T05:32:44.522Z,18.20
2017-10-10T05:35:13.183Z,18.87
2017-10-10T05:37:41.846Z,19.57
2017-10-10T05:40:10.463Z,18.70
2017-10-10T05:42:39.119Z,19.73
2017-10-10T05:45:07.731Z,19.03
2017-10-10T05:47:37.143Z,20.57
2017-10-10T05:50:05.805Z,20.97
2017-10-10T05:52:34.451Z,20.90
2017-10-10T05:55:03.076Z,19.37
2017-10-10T05:57:35.132Z,19.70
2017-10-10T06:00:03.610Z,20.23
2017-10-10T06:02:32.230Z,21.03
2017-10-10T06:05:00.875Z,20.10
2017-10-10T06:07:29.487Z,19.40
2017-10-10T06:09:58.154Z,20.80
2017-10-10T06:12:26.772Z,20.10
2017-10-10T06:14:55.436Z,20.07
2017-10-10T06:17:24.097Z,20.67
2017-10-10T06:19:52.718Z,19.80
2017-10-10T06:22:21.394Z,19.50
2017-10-10T06:24:50.011Z,19.53
2017-10-10T06:27:18.666Z,20.00
2017-10-10T06:29:47.194Z,21.27
2017-10-10T06:32:15.799Z,19.77
2017-10-10T06:34:44.428Z,20.83
2017-10-10T06:37:13.138Z,19.90
2017-10-10T06:39:41.746Z,19.97
2017-10-10T06:42:10.427Z,19.13
2017-10-10T06:44:39.054Z,19.93
2017-10-10T06:47:07.738Z,18.63
2017-10-10T06:49:36.351Z,20.07
2017-10-10T06:52:04.917Z,18.40
2017-10-10T06:54:33.573Z,18.27
2017-10-10T06:57:02.251Z,19.37
2017-10-10T06:59:30.880Z,18.97
2017-10-10T07:01:59.509Z,19.23
2017-10-10T07:04:28.170Z,19.30
2017-10-10T07:06:56.796Z,19.67
2017-10-10T07:09:25.416Z,17.73
2017-10-10T07:11:54.092Z,19.30
2017-10-10T07:14:22.718Z,18.50
2017-10-10T07:16:51.356Z,20.17
2017-10-10T07:19:20.069Z,17.90
2017-10-10T07:21:48.686Z,21.30
2017-10-10T07:24:17.338Z,18.77
2017-10-10T07:26:45.959Z,19.63
2017-10-10T07:29:14.622Z,18.50
2017-10-10T07:31:43.235Z,16.47
2017-10-10T07:34:11.855Z,18.57
2017-10-10T07:36:40.528Z,20.10
2017-10-10T07:39:09.243Z,19.47
2017-10-10T07:41:37.878Z,18.50
2017-10-10T07:44:06.503Z,17.50
2017-10-10T07:46:35.178Z,19.13
2017-10-10T07:49:03.798Z,18.73
2017-10-10T07:51:32.257Z,20.43
2017-10-10T07:54:00.766Z,18.63
2017-10-10T07:56:29.374Z,19.90
2017-10-10T07:58:58.034Z,20.20
2017-10-10T08:01:26.647Z,19.27
2017-10-10T08:03:55.279Z,18.70
2017-10-10T08:06:23.950Z,18.30
2017-10-10T08:08:52.581Z,19.10
2017-10-10T08:11:21.208Z,19.00
2017-10-10T08:13:49.868Z,21.70
2017-10-10T08:16:18.554Z,19.27
2017-10-10T08:18:47.175Z,19.97
2017-10-10T08:21:15.790Z,19.33
2017-10-10T08:23:44.462Z,19.63
2017-10-10T08:26:13.124Z,20.90
2017-10-10T08:28:41.736Z,19.90
2017-10-10T08:31:10.414Z,19.27
2017-10-10T08:33:39.082Z,20.77
2017-10-10T08:36:07.780Z,21.07
2017-10-10T08:38:36.409Z,17.97
2017-10-10T08:41:05.041Z,17.50
2017-10-10T08:43:33.573Z,19.20
2017-10-10T08:46:02.194Z,19.07
2017-10-10T08:48:30.844Z,17.33
2017-10-10T08:50:59.507Z,18.43
2017-10-10T08:53:28.131Z,20.33
2017-10-10T08:55:56.751Z,18.70
2017-10-10T08:58:25.428Z,18.13
2017-10-10T09:00:54.090Z,19.57
2017-10-10T09:03:22.705Z,19.87
2017-10-10T09:05:51.319Z,20.03
2017-10-10T09:08:19.991Z,18.70
2017-10-10T09:10:48.602Z,19.20
2017-10-10T09:13:17.215Z,18.67
2017-10-10T09:15:45.874Z,17.67
2017-10-10T09:18:14.517Z,17.10
2017-10-10T09:20:43.131Z,18.07
2017-10-10T09:23:11.636Z,16.77
2017-10-10T09:25:40.303Z,18.20
2017-10-10T09:28:08.777Z,18.77
2017-10-10T09:30:37.434Z,17.03
2017-10-10T09:33:06.050Z,17.20
2017-10-10T09:35:34.704Z,18.87
2017-10-10T09:38:03.318Z,17.07
2017-10-10T09:40:32.000Z,18.13
2017-10-10T09:43:00.611Z,17.50
2017-10-10T09:45:29.289Z,16.60
2017-10-10T09:47:57.914Z,17.60
2017-10-10T09:50:26.558Z,17.97
2017-10-10T09:52:55.234Z,16.80
2017-10-10T09:55:23.840Z,18.10
2017-10-10T09:57:52.511Z,17.23
2017-10-10T10:00:21.127Z,19.60
2017-10-10T10:02:49.734Z,17.50
2017-10-10T10:05:18.398Z,18.97
2017-10-10T10:07:47.055Z,18.90
2017-10-10T10:10:15.674Z,17.93
2017-10-10T10:12:44.354Z,20.00
2017-10-10T10:15:12.989Z,19.80
2017-10-10T10:17:41.606Z,19.90
2017-10-10T10:20:10.270Z,19.00
2017-10-10T10:22:38.945Z,18.70
2017-10-10T10:25:07.580Z,20.80
2017-10-10T10:27:36.714Z,18.50
2017-10-10T10:30:05.373Z,18.53
2017-10-10T10:32:33.924Z,18.30
2017-10-10T10:35:02.555Z,17.57
2017-10-10T10:37:35.071Z,19.10
2017-10-10T10:40:03.731Z,17.57
2017-10-10T10:42:32.397Z,17.40
2017-10-10T10:45:01.019Z,17.93
2017-10-10T10:47:31.527Z,18.30
2017-10-10T10:50:00.489Z,17.93
2017-10-10T10:52:29.168Z,16.80
2017-10-10T10:54:57.782Z,18.10
2017-10-10T10:57:26.454Z,18.27
2017-10-10T10:59:55.071Z,18.60
2017-10-10T11:02:23.695Z,18.13
2017-10-10T11:04:52.353Z,18.87
2017-10-10T11:07:20.989Z,17.70
2017-10-10T11:09:49.646Z,17.13
2017-10-10T11:12:18.279Z,18.07
2017-10-10T11:14:46.811Z,17.70
2017-10-10T11:17:15.443Z,18.60
2017-10-10T11:19:44.107Z,18.27
2017-10-10T11:22:12.762Z,18.37
2017-10-10T11:24:41.415Z,18.40
2017-10-10T11:27:10.031Z,19.47
2017-10-10T11:29:38.654Z,18.40
2017-10-10T11:32:07.333Z,18.97
2017-10-10T11:34:35.812Z,16.87
2017-10-10T11:37:04.448Z,18.50
2017-10-10T11:39:33.118Z,17.93
2017-10-10T11:42:01.743Z,19.60
2017-10-10T11:44:30.374Z,15.50
2017-10-10T11:46:59.036Z,17.13
2017-10-10T11:49:27.642Z,16.30
2017-10-10T11:51:56.251Z,16.53
2017-10-10T11:54:24.943Z,18.00
2017-10-10T11:56:53.579Z,16.40
2017-10-10T11:59:22.207Z,16.50
2017-10-10T12:01:50.881Z,16.93
2017-10-10T12:04:19.507Z,16.80
2017-10-10T12:06:48.139Z,18.00
2017-10-10T12:09:16.815Z,16.20
2017-10-10T12:11:45.511Z,15.50
2017-10-10T12:14:14.146Z,15.30
2017-10-10T12:16:42.766Z,15.03
2017-10-10T12:19:11.458Z,16.13
2017-10-10T12:21:40.110Z,15.80
2017-10-10T12:24:08.794Z,15.77
2017-10-10T12:26:37.418Z,16.00
2017-10-10T12:29:06.077Z,14.50
2017-10-10T12:31:34.555Z,14.23
2017-10-10T12:34:03.091Z,15.73
2017-10-10T12:36:31.579Z,13.70
2017-10-10T12:39:00.189Z,14.53
2017-10-10T12:41:28.853Z,12.13
2017-10-10T12:43:57.461Z,14.03
2017-10-10T12:46:26.094Z,11.90
2017-10-10T12:48:54.760Z,13.40
2017-10-10T12:51:23.396Z,12.67
2017-10-10T12:53:52.002Z,13.90
2017-10-10T12:56:20.662Z,12.13
2017-10-10T12:58:49.144Z,12.47
2017-10-10T13:01:17.622Z,11.90
2017-10-10T13:03:46.287Z,12.30
2017-10-10T13:06:14.901Z,12.60
2017-10-10T13:08:43.544Z,11.20
2017-10-10T13:11:12.234Z,10.53
2017-10-10T13:13:40.843Z,12.70
2017-10-10T13:16:09.470Z,11.23
2017-10-10T13:18:38.122Z,11.10
2017-10-10T13:21:06.745Z,11.80
2017-10-10T13:23:35.359Z,12.20
2017-10-10T13:26:04.051Z,11.67
2017-10-10T13:28:32.671Z,11.40
2017-10-10T13:31:01.326Z,11.70
2017-10-10T13:33:30.016Z,11.00
2017-10-10T13:35:58.635Z,12.37
2017-10-10T13:38:26.967Z,11.90
2017-10-10T13:40:55.713Z,10.43
2017-10-10T13:43:24.227Z,12.10
2017-10-10T13:45:52.695Z,10.63
2017-10-10T13:48:21.393Z,11.13
2017-10-10T13:50:50.021Z,11.20
2017-10-10T13:53:18.635Z,11.33
2017-10-10T13:55:47.287Z,11.40
2017-10-10T13:58:15.942Z,11.40
2017-10-10T14:00:44.559Z,11.10
2017-10-10T14:03:13.184Z,10.50
2017-10-10T14:05:41.850Z,10.60
2017-10-10T14:08:10.467Z,9.33
2017-10-10T14:10:39.085Z,10.67
2017-10-10T14:13:07.746Z,10.63
2017-10-10T14:15:36.366Z,10.93
2017-10-10T14:18:05.046Z,11.30
2017-10-10T14:20:33.659Z,11.37
2017-10-10T14:23:02.329Z,10.17
2017-10-10T14:25:30.946Z,9.90
2017-10-10T14:27:59.597Z,9.63
2017-10-10T14:30:28.237Z,10.73
2017-10-10T14:32:56.936Z,9.47
2017-10-10T14:35:25.568Z,10.00
2017-10-10T14:37:54.191Z,11.10
2017-10-10T14:40:22.852Z,10.50
2017-10-10T14:42:51.461Z,11.10
2017-10-10T14:45:20.129Z,11.47
2017-10-10T14:47:48.760Z,10.53
2017-10-10T14:50:17.388Z,10.57
2017-10-10T14:52:46.082Z,11.67
2017-10-10T14:55:14.705Z,9.93
2017-10-10T14:57:43.322Z,10.50
2017-10-10T15:00:11.983Z,11.10
2017-10-10T15:02:40.617Z,10.30
2017-10-10T15:05:09.278Z,10.13
2017-10-10T15:07:38.660Z,10.17
2017-10-10T15:10:07.270Z,9.70
2017-10-10T15:12:35.931Z,9.40
2017-10-10T15:15:04.613Z,9.50
2017-10-10T15:17:36.192Z,7.80
2017-10-10T15:20:04.851Z,8.20
2017-10-10T15:22:33.454Z,7.30
2017-10-10T15:25:02.123Z,7.50
2017-10-10T15:27:34.718Z,7.10
2017-10-10T15:30:03.370Z,6.47
2017-10-10T15:32:31.987Z,7.63
2017-10-10T15:35:00.605Z,7.20
2017-10-10T15:37:30.044Z,8.00
2017-10-10T15:39:58.843Z,7.60
2017-10-10T15:42:27.506Z,7.83
2017-10-10T15:44:55.990Z,8.27
2017-10-10T15:47:24.494Z,7.43
2017-10-10T15:49:53.112Z,8.50
2017-10-10T15:52:21.757Z,8.57
2017-10-10T15:54:50.376Z,8.73
2017-10-10T15:57:19.033Z,9.33
2017-10-10T15:59:47.653Z,9.37
2017-10-10T16:02:16.320Z,10.80
2017-10-10T16:04:44.943Z,11.73
2017-10-10T16:07:13.602Z,12.07
2017-10-10T16:09:42.092Z,11.00
2017-10-10T16:12:10.766Z,13.20
2017-10-10T16:14:39.380Z,11.60
2017-10-10T16:17:08.034Z,11.90
2017-10-10T16:19:36.662Z,11.87
2017-10-10T16:22:05.329Z,11.40
2017-10-10T16:24:33.952Z,11.43
2017-10-10T16:27:02.950Z,11.00
2017-10-10T16:29:31.574Z,10.90
2017-10-10T16:32:00.054Z,11.83
2017-10-10T16:34:28.616Z,11.50
2017-10-10T16:36:57.079Z,11.23
2017-10-10T16:39:25.757Z,12.93
2017-10-10T16:41:54.436Z,12.53
2017-10-10T16:44:23.055Z,11.27
2017-10-10T16:46:51.736Z,10.73
2017-10-10T16:49:20.355Z,10.00
2017-10-10T16:51:49.135Z,10.70
2017-10-10T16:54:17.745Z,10.30
2017-10-10T16:56:46.406Z,12.23
2017-10-10T16:59:15.026Z,11.17
2017-10-10T17:01:43.647Z,13.10
2017-10-10T17:04:12.327Z,13.53
2017-10-10T17:06:40.942Z,11.87
2017-10-10T17:09:09.558Z,12.10
2017-10-10T17:11:38.220Z,12.40
2017-10-10T17:14:06.845Z,15.13
2017-10-10T17:16:35.465Z,16.20
2017-10-10T17:19:04.213Z,19.53
2017-10-10T17:21:36.483Z,18.07
2017-10-10T17:24:05.377Z,16.27
2017-10-10T17:26:34.400Z,17.80
2017-10-10T17:29:10.503Z,17.27
2017-10-10T17:31:49.693Z,17.27
2017-10-10T17:34:33.266Z,17.23
2017-10-10T17:39:58.978Z,18.47
2017-10-10T17:42:38.743Z,20.63
2017-10-10T17:45:21.093Z,20.53
2017-10-10T17:50:40.765Z,22.17
2017-10-10T17:53:20.810Z,21.33
2017-10-10T17:56:00.083Z,20.53
2017-10-10T17:58:41.034Z,21.20
2017-10-10T18:01:20.627Z,21.50
2017-10-10T18:04:00.252Z,21.47
2017-10-10T18:06:40.151Z,20.67
2017-10-10T18:09:21.331Z,19.57
2017-10-10T18:11:59.798Z,20.40
2017-10-10T18:14:43.964Z,18.07
2017-10-10T18:17:22.182Z,19.77
2017-10-10T18:20:03.431Z,19.17
2017-10-10T18:22:42.397Z,19.73
2017-10-10T18:25:22.182Z,18.13
2017-10-10T18:27:54.684Z,18.53
2017-10-10T18:30:30.772Z,19.53
2017-10-10T18:33:09.378Z,20.40
2017-10-10T18:35:53.421Z,18.17
2017-10-10T18:38:38.543Z,21.40
2017-10-10T18:41:23.305Z,20.60
2017-10-10T18:44:07.283Z,19.67
2017-10-10T18:46:51.901Z,19.63
2017-10-10T18:49:39.974Z,18.73
2017-10-10T18:52:28.544Z,17.13
2017-10-10T18:55:15.638Z,18.27
2017-10-10T18:57:51.361Z,18.60
2017-10-10T19:00:27.522Z,15.73
2017-10-10T19:02:59.381Z,15.77
2017-10-10T19:05:31.769Z,16.43
2017-10-10T19:08:01.818Z,15.30
2017-10-10T19:10:31.780Z,15.73
2017-10-10T19:13:03.200Z,14.83
2017-10-10T19:15:36.074Z,14.10
2017-10-10T19:18:06.873Z,15.67
2017-10-10T19:20:37.185Z,14.37
2017-10-10T19:23:06.890Z,14.50
2017-10-10T19:25:37.734Z,14.57
2017-10-10T19:28:14.182Z,13.57
2017-10-10T19:30:44.941Z,12.67
2017-10-10T19:33:14.845Z,12.70
2017-10-10T19:35:51.979Z,13.40
2017-10-10T19:38:22.021Z,14.20
2017-10-10T19:40:52.238Z,13.20
2017-10-10T19:43:22.702Z,13.03
2017-10-10T19:45:59.953Z,12.00
2017-10-10T19:48:28.909Z,12.60
2017-10-10T19:50:57.531Z,12.03
2017-10-10T19:53:26.190Z,11.77
2017-10-10T19:55:54.805Z,10.97
2017-10-10T19:58:23.459Z,12.27
2017-10-10T20:00:52.085Z,11.90
2017-10-10T20:03:20.746Z,11.77
2017-10-10T20:05:49.245Z,11.53
2017-10-10T20:08:17.867Z,11.83
2017-10-10T20:10:46.580Z,11.40
2017-10-10T20:13:15.259Z,10.63
2017-10-10T20:15:43.874Z,10.10
2017-10-10T20:18:12.494Z,11.30
2017-10-10T20:20:41.180Z,12.57
2017-10-10T20:23:09.795Z,9.93
2017-10-10T20:25:38.410Z,10.80
2017-10-10T20:28:07.068Z,9.70
2017-10-10T20:30:35.695Z,9.87
2017-10-10T20:33:04.327Z,9.90
2017-10-10T20:35:32.982Z,9.87
2017-10-10T20:38:01.652Z,10.83
2017-10-10T20:40:30.259Z,9.00
2017-10-10T20:42:58.729Z,10.63
2017-10-10T20:45:27.404Z,10.60
2017-10-10T20:47:56.027Z,9.77
2017-10-10T20:50:24.507Z,9.10
2017-10-10T20:52:53.177Z,9.93
2017-10-10T20:55:21.782Z,9.50
2017-10-10T20:57:51.131Z,9.23
2017-10-10T21:00:19.811Z,9.53
2017-10-10T21:02:48.479Z,9.47
2017-10-10T21:05:16.967Z,9.10
2017-10-10T21:07:45.622Z,9.30
2017-10-10T21:10:14.225Z,9.40
2017-10-10T21:12:42.895Z,9.70
2017-10-10T21:15:11.510Z,9.20
2017-10-10T21:17:40.127Z,8.47
2017-10-10T21:20:09.075Z,10.07
2017-10-10T21:22:37.779Z,9.60
2017-10-10T21:25:06.401Z,9.17
2017-10-10T21:27:39.157Z,9.20
2017-10-10T21:30:07.771Z,8.67
2017-10-10T21:32:36.286Z,7.73
2017-10-10T21:35:04.895Z,8.83
2017-10-10T21:37:38.091Z,9.07
2017-10-10T21:40:06.566Z,10.13
2017-10-10T21:42:35.182Z,10.53
2017-10-10T21:45:03.891Z,9.50
2017-10-10T21:47:36.740Z,9.00
2017-10-10T21:50:05.395Z,9.37
2017-10-10T21:52:34.089Z,9.27
2017-10-10T21:55:02.694Z,8.00
2017-10-10T21:57:36.434Z,8.87
2017-10-10T22:00:04.775Z,8.47
2017-10-10T22:02:34.658Z,8.17
2017-10-10T22:05:03.396Z,9.13
2017-10-10T22:07:35.640Z,8.07
2017-10-10T22:10:04.360Z,7.90
2017-10-10T22:12:33.022Z,7.97
2017-10-10T22:15:01.635Z,7.73
2017-10-10T22:17:30.255Z,7.47
2017-10-10T22:19:58.782Z,9.20
2017-10-10T22:22:27.401Z,9.37
2017-10-10T22:24:56.023Z,7.70
2017-10-10T22:27:24.731Z,8.00
2017-10-10T22:29:53.382Z,6.90
2017-10-10T22:32:21.992Z,7.00
2017-10-10T22:34:50.600Z,7.47
2017-10-10T22:37:19.251Z,7.70
2017-10-10T22:39:47.890Z,7.17
2017-10-10T22:42:16.533Z,6.40
2017-10-10T22:44:45.210Z,6.70
2017-10-10T22:47:13.817Z,7.30
2017-10-10T22:49:42.442Z,8.10
2017-10-10T22:52:11.131Z,8.03
2017-10-10T22:54:39.752Z,8.53
2017-10-10T22:57:08.383Z,8.47
2017-10-10T22:59:36.897Z,8.63
2017-10-10T23:02:05.425Z,9.43
2017-10-10T23:04:34.052Z,8.67
2017-10-10T23:07:02.705Z,7.93
2017-10-10T23:09:31.311Z,8.87
2017-10-10T23:11:59.975Z,8.67
2017-10-10T23:14:28.590Z,9.60
2017-10-10T23:16:57.218Z,8.70
2017-10-10T23:19:25.901Z,8.93
2017-10-10T23:21:54.538Z,10.03
2017-10-10T23:24:23.201Z,9.70
2017-10-10T23:26:51.823Z,9.57
2017-10-10T23:29:20.494Z,10.70
2017-10-10T23:31:49.111Z,10.17
2017-10-10T23:34:17.739Z,10.10
2017-10-10T23:36:46.401Z,9.97
2017-10-10T23:39:15.126Z,11.40
2017-10-10T23:41:43.762Z,10.97
2017-10-10T23:44:12.423Z,10.30
2017-10-10T23:46:41.086Z,10.17
2017-10-10T23:49:09.708Z,9.60
2017-10-10T23:51:38.375Z,9.50
2017-10-10T23:54:07.002Z,10.03
2017-10-10T23:56:35.627Z,9.43
2017-10-10T23:59:04.296Z,10.13
